createdAt,value
2022-08-17T00:01:45.523Z,21.63
2022-08-17T00:04:20.650Z,23.67
2022-08-17T00:06:49.688Z,25.63
2022-08-17T00:09:18.959Z,26.30
2022-08-17T00:12:40.660Z,26.23
2022-08-17T00:14:36.289Z,22.50
2022-08-17T00:17:04.918Z,21.65
2022-08-17T00:19:33.100Z,19.92
2022-08-17T00:22:32.106Z,17.98
2022-08-17T00:24:50.990Z,18.02
2022-08-17T00:27:18.509Z,16.73
2022-08-17T00:29:46.209Z,18.80
2022-08-17T00:33:14.210Z,21.30
2022-08-17T00:35:03.820Z,23.58
2022-08-17T00:37:31.227Z,24.15
2022-08-17T00:39:58.827Z,24.60
2022-08-17T00:42:30.775Z,27.30
2022-08-17T00:44:58.961Z,25.40
2022-08-17T00:47:26.297Z,23.95
2022-08-17T00:49:54.193Z,23.70
2022-08-17T00:52:23.880Z,26.70
2022-08-17T00:54:54.147Z,25.95
2022-08-17T00:57:26.518Z,25.95
2022-08-17T01:00:03.269Z,25.27
2022-08-17T01:02:42.067Z,25.98
2022-08-17T01:05:16.627Z,29.55
2022-08-17T01:07:46.928Z,29.48
2022-08-17T01:10:59.824Z,28.27
2022-08-17T01:13:03.788Z,25.83
2022-08-17T01:15:35.168Z,27.83
2022-08-17T01:18:02.868Z,25.35
2022-08-17T01:20:30.158Z,24.92
2022-08-17T01:23:10.257Z,27.42
2022-08-17T01:25:43.867Z,24.13
2022-08-17T01:28:52.461Z,25.25
2022-08-17T01:31:04.499Z,26.90
2022-08-17T01:33:31.927Z,26.83
2022-08-17T01:36:00.812Z,29.13
2022-08-17T01:38:31.990Z,28.63
2022-08-17T01:41:06.120Z,28.42
2022-08-17T01:43:39.256Z,28.58
2022-08-17T01:46:06.717Z,28.60
2022-08-17T01:48:35.088Z,27.50
2022-08-17T01:51:02.907Z,27.05
2022-08-17T01:53:33.037Z,27.20
2022-08-17T01:56:01.759Z,28.15
2022-08-17T01:58:28.969Z,27.75
2022-08-17T02:01:00.707Z,25.38
2022-08-17T02:03:29.568Z,24.00
2022-08-17T02:05:59.828Z,24.17
2022-08-17T02:08:37.175Z,24.50
2022-08-17T02:11:11.691Z,23.25
2022-08-17T02:13:39.837Z,22.67
2022-08-17T02:16:06.979Z,24.83
2022-08-17T02:18:34.188Z,23.48
2022-08-17T02:21:02.458Z,26.05
2022-08-17T02:23:31.930Z,24.48
2022-08-17T02:26:00.579Z,25.25
2022-08-17T02:28:28.907Z,23.42
2022-08-17T02:31:03.898Z,22.63
2022-08-17T02:33:42.019Z,21.95
2022-08-17T02:36:12.137Z,22.58
2022-08-17T02:38:40.888Z,21.75
2022-08-17T02:41:08.709Z,23.60
2022-08-17T02:43:35.862Z,22.42
2022-08-17T02:46:03.291Z,26.50
2022-08-17T02:48:32.046Z,28.95
2022-08-17T02:51:00.224Z,28.02
2022-08-17T02:53:31.815Z,30.02
2022-08-17T02:56:04.133Z,27.48
2022-08-17T02:58:35.841Z,27.40
2022-08-17T03:01:07.826Z,26.90
2022-08-17T03:03:36.297Z,26.05
2022-08-17T03:06:04.066Z,26.50
2022-08-17T03:08:31.597Z,24.73
2022-08-17T03:10:59.019Z,23.85
2022-08-17T03:13:27.725Z,21.00
2022-08-17T03:15:54.911Z,23.08
2022-08-17T03:18:24.683Z,20.65
2022-08-17T03:20:54.149Z,20.02
2022-08-17T03:23:24.168Z,19.83
2022-08-17T03:25:53.175Z,19.02
2022-08-17T03:28:21.104Z,18.20
2022-08-17T03:30:48.478Z,17.00
2022-08-17T03:33:16.481Z,16.58
2022-08-17T03:35:44.107Z,17.83
2022-08-17T03:38:12.577Z,19.00
2022-08-17T03:40:59.102Z,19.80
2022-08-17T03:43:28.387Z,21.02
2022-08-17T03:46:27.252Z,22.48
2022-08-17T03:49:15.527Z,24.20
2022-08-17T03:54:46.907Z,22.30
2022-08-17T03:57:14.429Z,23.17
2022-08-17T03:59:44.903Z,21.17
2022-08-17T04:02:18.787Z,23.20
2022-08-17T04:04:48.668Z,23.10
2022-08-17T04:07:15.873Z,21.40
2022-08-17T04:09:43.356Z,18.88
2022-08-17T04:12:10.981Z,19.65
2022-08-17T04:14:51.653Z,19.80
2022-08-17T04:17:20.740Z,21.15
2022-08-17T04:19:48.835Z,18.75
2022-08-17T04:22:32.401Z,21.90
2022-08-17T04:25:21.928Z,20.77
2022-08-17T04:27:49.097Z,19.50
2022-08-17T04:30:16.715Z,22.23
2022-08-17T04:33:10.858Z,20.55
2022-08-17T04:35:42.798Z,23.38
2022-08-17T04:38:12.244Z,23.17
2022-08-17T04:40:57.948Z,22.33
2022-08-17T04:43:26.268Z,21.23
2022-08-17T04:45:56.848Z,21.00
2022-08-17T04:48:35.387Z,20.45
2022-08-17T04:51:10.186Z,20.00
2022-08-17T04:53:38.391Z,19.50
2022-08-17T04:56:06.265Z,21.30
2022-08-17T04:58:33.706Z,22.23
2022-08-17T05:01:01.739Z,20.92
2022-08-17T05:03:29.324Z,18.73
2022-08-17T05:05:56.530Z,18.13
2022-08-17T05:08:23.837Z,15.75
2022-08-17T05:10:51.238Z,15.88
2022-08-17T05:13:20.027Z,16.00
2022-08-17T05:15:48.409Z,16.40
2022-08-17T05:18:16.697Z,19.50
2022-08-17T05:20:44.018Z,16.80
2022-08-17T05:23:12.468Z,15.13
2022-08-17T05:25:41.728Z,14.98
2022-08-17T05:28:12.129Z,19.30
2022-08-17T05:30:40.358Z,16.02
2022-08-17T05:33:09.669Z,18.10
2022-08-17T05:35:38.529Z,12.75
2022-08-17T05:38:06.069Z,12.45
2022-08-17T05:40:33.579Z,11.10
2022-08-17T05:43:12.318Z,11.15
2022-08-17T05:45:54.592Z,11.18
2022-08-17T05:48:35.391Z,10.07
2022-08-17T05:51:30.470Z,8.63
2022-08-17T05:53:57.728Z,9.65
2022-08-17T05:56:57.528Z,9.35
2022-08-17T05:59:33.448Z,9.15
2022-08-17T06:02:27.168Z,10.20
2022-08-17T06:05:00.194Z,8.75
2022-08-17T06:07:42.600Z,9.32
2022-08-17T06:10:32.439Z,9.13
2022-08-17T06:13:06.008Z,8.25
2022-08-17T06:15:51.631Z,8.90
2022-08-17T06:18:21.587Z,9.15
2022-08-17T06:20:48.748Z,9.15
2022-08-17T06:23:20.099Z,9.68
2022-08-17T06:25:51.218Z,10.15
2022-08-17T06:28:44.551Z,10.77
2022-08-17T06:31:22.832Z,10.65
2022-08-17T06:33:50.550Z,9.60
2022-08-17T06:36:41.269Z,9.90
2022-08-17T06:39:17.449Z,9.77
2022-08-17T06:41:44.912Z,10.77
2022-08-17T06:44:42.288Z,11.68
2022-08-17T06:47:09.299Z,9.82
2022-08-17T06:49:55.283Z,10.98
2022-08-17T06:52:46.310Z,10.75
2022-08-17T06:55:19.640Z,10.68
2022-08-17T06:57:51.859Z,11.05
2022-08-17T07:00:20.798Z,10.43
2022-08-17T07:02:59.791Z,11.38
2022-08-17T07:05:47.440Z,11.18
2022-08-17T07:08:20.709Z,10.68
2022-08-17T07:10:53.049Z,10.57
2022-08-17T07:13:25.872Z,11.25
2022-08-17T07:15:57.151Z,12.27
2022-08-17T07:18:26.336Z,16.02
2022-08-17T07:20:58.222Z,16.60
2022-08-17T07:23:34.187Z,14.75
2022-08-17T07:26:06.227Z,13.50
2022-08-17T07:28:34.055Z,13.68
2022-08-17T07:31:01.429Z,13.23
2022-08-17T07:33:31.458Z,12.80
2022-08-17T07:36:00.207Z,13.07
2022-08-17T07:38:34.775Z,12.38
2022-08-17T07:41:14.054Z,12.38
2022-08-17T07:43:54.594Z,12.32
2022-08-17T07:46:44.405Z,14.70
2022-08-17T07:49:15.199Z,12.50
2022-08-17T07:51:42.701Z,13.15
2022-08-17T07:54:14.860Z,11.70
2022-08-17T07:56:47.082Z,12.35
2022-08-17T07:59:23.439Z,13.02
2022-08-17T08:01:58.242Z,12.85
2022-08-17T08:05:00.554Z,13.23
2022-08-17T08:07:50.685Z,12.65
2022-08-17T08:10:30.516Z,13.02
2022-08-17T08:13:20.715Z,12.10
2022-08-17T08:15:54.083Z,12.15
2022-08-17T08:18:54.750Z,11.75
2022-08-17T08:21:31.785Z,10.80
2022-08-17T08:24:21.911Z,10.93
2022-08-17T08:27:07.367Z,10.73
2022-08-17T08:30:05.520Z,10.25
2022-08-17T08:32:51.975Z,10.40
2022-08-17T08:35:26.944Z,11.35
2022-08-17T08:40:25.028Z,10.85
2022-08-17T08:42:59.247Z,10.00
2022-08-17T08:45:47.112Z,10.85
2022-08-17T08:48:53.251Z,11.32
2022-08-17T08:51:49.639Z,10.63
2022-08-17T08:54:26.541Z,10.38
2022-08-17T08:57:22.207Z,9.50
2022-08-17T08:59:58.075Z,9.75
2022-08-17T09:02:34.896Z,11.65
2022-08-17T09:05:14.206Z,12.40
2022-08-17T09:08:04.868Z,11.68
2022-08-17T09:10:42.208Z,14.48
2022-08-17T09:13:24.790Z,15.88
2022-08-17T09:16:05.279Z,15.90
2022-08-17T09:19:00.907Z,16.73
2022-08-17T09:21:28.698Z,15.45
2022-08-17T09:24:06.867Z,18.73
2022-08-17T09:26:44.309Z,20.10
2022-08-17T09:29:15.308Z,18.15
2022-08-17T09:32:04.007Z,18.35
2022-08-17T09:34:43.568Z,17.10
2022-08-17T09:37:28.771Z,16.73
2022-08-17T09:39:59.181Z,16.88
2022-08-17T09:42:46.748Z,15.57
2022-08-17T09:45:32.338Z,15.63
2022-08-17T09:51:05.074Z,13.90
2022-08-17T09:53:22.929Z,10.93
2022-08-17T09:56:09.099Z,11.27
2022-08-17T09:58:55.789Z,11.70
2022-08-17T10:01:36.968Z,12.88
2022-08-17T10:04:04.349Z,12.57
2022-08-17T10:06:35.748Z,11.10
2022-08-17T10:09:09.195Z,10.25
2022-08-17T10:12:00.508Z,10.68
2022-08-17T10:14:43.693Z,11.05
2022-08-17T10:17:21.859Z,10.13
2022-08-17T10:19:54.220Z,9.07
2022-08-17T10:22:55.024Z,9.30
2022-08-17T10:25:54.978Z,9.77
2022-08-17T10:28:28.764Z,10.23
2022-08-17T10:31:17.026Z,11.40
2022-08-17T10:33:57.989Z,10.43
2022-08-17T10:36:47.668Z,11.02
2022-08-17T10:39:21.230Z,9.27
2022-08-17T10:41:51.096Z,8.48
2022-08-17T10:44:38.829Z,7.65
2022-08-17T10:47:09.557Z,8.00
2022-08-17T10:49:45.998Z,10.38
2022-08-17T10:52:28.558Z,10.38
2022-08-17T10:54:59.129Z,10.35
2022-08-17T10:57:29.752Z,7.55
2022-08-17T11:00:01.098Z,7.25
2022-08-17T11:02:50.364Z,8.18
2022-08-17T11:05:18.137Z,7.57
2022-08-17T11:07:58.972Z,7.50
2022-08-17T11:10:35.695Z,8.20
2022-08-17T11:13:06.133Z,10.80
2022-08-17T11:15:52.228Z,10.48
2022-08-17T11:18:36.867Z,10.98
2022-08-17T11:21:07.281Z,10.25
2022-08-17T11:23:43.818Z,11.43
2022-08-17T11:26:26.337Z,10.20
2022-08-17T11:28:59.077Z,9.40
2022-08-17T11:31:39.102Z,9.63
2022-08-17T11:34:13.629Z,9.60
2022-08-17T11:37:01.278Z,10.32
2022-08-17T11:39:37.972Z,10.38
2022-08-17T11:42:12.192Z,8.98
2022-08-17T11:44:58.496Z,7.18
2022-08-17T11:48:27.642Z,7.32
2022-08-17T11:51:17.287Z,9.43
2022-08-17T11:53:46.060Z,9.63
2022-08-17T11:56:34.607Z,9.40
2022-08-17T11:59:02.388Z,9.10
2022-08-17T12:01:32.415Z,7.95
2022-08-17T12:04:18.165Z,8.02
2022-08-17T12:06:48.596Z,7.13
2022-08-17T12:09:25.198Z,6.95
2022-08-17T12:12:11.927Z,7.00
2022-08-17T12:17:41.586Z,7.57
2022-08-17T12:20:11.942Z,7.60
2022-08-17T12:22:45.477Z,7.05
2022-08-17T12:25:22.607Z,6.63
2022-08-17T12:28:04.967Z,6.30
2022-08-17T12:30:35.271Z,7.28
2022-08-17T12:33:03.129Z,6.90
2022-08-17T12:35:39.092Z,6.72
2022-08-17T12:38:31.876Z,6.82
2022-08-17T12:40:58.118Z,5.18
2022-08-17T12:43:27.758Z,5.55
2022-08-17T12:46:01.227Z,5.22
2022-08-17T12:48:59.260Z,4.93
2022-08-17T12:51:29.299Z,5.43
2022-08-17T12:53:57.016Z,4.65
2022-08-17T12:56:24.306Z,5.07
2022-08-17T12:58:54.354Z,5.10
2022-08-17T13:01:23.616Z,5.70
2022-08-17T13:03:52.647Z,5.40
2022-08-17T13:06:31.816Z,5.95
2022-08-17T13:09:12.836Z,5.40
2022-08-17T13:11:55.477Z,5.82
2022-08-17T13:14:22.949Z,5.97
2022-08-17T13:16:56.286Z,5.75
2022-08-17T13:19:40.539Z,5.65
2022-08-17T13:24:58.396Z,5.25
2022-08-17T13:27:27.028Z,5.50
2022-08-17T13:29:57.480Z,5.65
2022-08-17T13:32:31.340Z,6.20
2022-08-17T13:35:14.339Z,5.70
2022-08-17T13:37:56.407Z,5.88
2022-08-17T13:40:23.607Z,6.68
2022-08-17T13:42:55.776Z,7.63
2022-08-17T13:45:36.369Z,7.07
2022-08-17T13:48:04.430Z,6.80
2022-08-17T13:50:31.637Z,6.85
2022-08-17T13:52:59.209Z,7.00
2022-08-17T13:55:28.497Z,6.53
2022-08-17T13:58:03.639Z,6.25
2022-08-17T14:00:36.603Z,6.03
2022-08-17T14:03:04.816Z,6.15
2022-08-17T14:05:32.492Z,5.75
2022-08-17T14:08:02.019Z,7.22
2022-08-17T14:10:36.783Z,7.68
2022-08-17T14:13:05.289Z,7.97
2022-08-17T14:15:54.868Z,7.18
2022-08-17T14:18:35.662Z,8.25
2022-08-17T14:21:09.694Z,7.20
2022-08-17T14:23:37.429Z,7.13
2022-08-17T14:26:05.208Z,7.03
2022-08-17T14:28:32.484Z,8.02
2022-08-17T14:31:00.996Z,8.23
2022-08-17T14:33:28.723Z,7.68
2022-08-17T14:35:57.692Z,7.88
2022-08-17T14:38:25.196Z,7.68
2022-08-17T14:40:52.769Z,7.72
2022-08-17T14:43:21.186Z,7.70
2022-08-17T14:45:48.784Z,7.97
2022-08-17T14:48:16.148Z,7.55
2022-08-17T14:50:44.003Z,7.78
2022-08-17T14:53:12.784Z,9.10
2022-08-17T14:55:40.718Z,8.15
2022-08-17T14:58:09.354Z,9.00
2022-08-17T15:00:37.382Z,8.82
2022-08-17T15:03:05.088Z,8.70
2022-08-17T15:05:35.288Z,8.00
2022-08-17T15:08:03.386Z,8.38
2022-08-17T15:10:31.027Z,8.95
2022-08-17T15:12:58.818Z,8.98
2022-08-17T15:15:26.879Z,9.15
2022-08-17T15:17:54.179Z,9.20
2022-08-17T15:20:24.040Z,9.30
2022-08-17T15:22:55.690Z,8.20
2022-08-17T15:25:24.398Z,8.27
2022-08-17T15:27:52.302Z,8.27
2022-08-17T15:30:20.523Z,8.50
2022-08-17T15:32:51.144Z,8.70
2022-08-17T15:35:28.549Z,9.23
2022-08-17T15:38:06.103Z,8.55
2022-08-17T15:40:38.887Z,8.93
2022-08-17T15:43:07.190Z,8.70
2022-08-17T15:45:34.873Z,8.60
2022-08-17T15:48:02.722Z,9.07
2022-08-17T15:50:30.016Z,9.27
2022-08-17T15:52:58.688Z,9.70
2022-08-17T15:55:27.649Z,9.05
2022-08-17T15:57:55.050Z,8.30
2022-08-17T16:00:24.243Z,9.80
2022-08-17T16:03:45.965Z,9.65
2022-08-17T16:05:40.768Z,10.23
2022-08-17T16:08:11.559Z,9.77
2022-08-17T16:10:41.668Z,9.63
2022-08-17T16:13:17.489Z,10.80
2022-08-17T16:15:53.073Z,11.20
2022-08-17T16:18:31.219Z,11.80
2022-08-17T16:21:19.793Z,12.73
2022-08-17T16:23:48.061Z,12.98
2022-08-17T16:26:16.198Z,11.95
2022-08-17T16:28:43.457Z,13.25
2022-08-17T16:31:10.649Z,12.75
2022-08-17T16:33:39.828Z,13.77
2022-08-17T16:36:10.568Z,13.40
2022-08-17T16:38:38.799Z,13.95
2022-08-17T16:41:06.360Z,13.27
2022-08-17T16:43:34.279Z,13.98
2022-08-17T16:46:02.087Z,14.15
2022-08-17T16:48:29.887Z,14.18
2022-08-17T16:51:00.313Z,14.13
2022-08-17T16:53:31.791Z,14.55
2022-08-17T16:55:59.040Z,13.32
2022-08-17T16:58:26.378Z,13.60
2022-08-17T17:00:54.564Z,13.38
2022-08-17T17:03:24.971Z,15.50
2022-08-17T17:06:07.295Z,15.15
2022-08-17T17:08:35.144Z,15.95
2022-08-17T17:11:16.376Z,15.90
2022-08-17T17:14:01.900Z,14.75
2022-08-17T17:16:29.128Z,16.65
2022-08-17T17:19:07.278Z,15.48
2022-08-17T17:21:47.077Z,15.32
2022-08-17T17:24:17.440Z,16.00
2022-08-17T17:26:52.918Z,16.23
2022-08-17T17:29:28.657Z,15.77
2022-08-17T17:32:31.279Z,28.73
2022-08-17T17:35:06.959Z,23.92
2022-08-17T17:37:35.098Z,19.85
2022-08-17T17:40:23.284Z,16.85
2022-08-17T17:42:52.628Z,17.58
2022-08-17T17:45:21.861Z,18.45
2022-08-17T17:47:49.549Z,19.75
2022-08-17T17:50:18.427Z,19.88
2022-08-17T17:52:56.348Z,18.77
2022-08-17T17:55:30.178Z,23.17
2022-08-17T17:58:06.828Z,19.65
2022-08-17T18:00:59.888Z,20.52
2022-08-17T18:03:46.293Z,19.67
2022-08-17T18:06:18.658Z,20.42
2022-08-17T18:08:52.248Z,21.65
2022-08-17T18:11:25.329Z,24.17
2022-08-17T18:13:54.428Z,25.58
2022-08-17T18:16:22.829Z,25.08
2022-08-17T18:18:52.468Z,23.20
2022-08-17T18:21:21.769Z,22.30
2022-08-17T18:23:54.898Z,24.20
2022-08-17T18:26:42.047Z,23.63
2022-08-17T18:29:34.549Z,23.27
2022-08-17T18:32:17.999Z,23.27
2022-08-17T18:34:48.593Z,24.30
2022-08-17T18:37:33.235Z,24.20
2022-08-17T18:40:20.416Z,25.77
2022-08-17T18:43:00.367Z,26.38
2022-08-17T18:45:47.568Z,26.88
2022-08-17T18:48:37.019Z,26.45
2022-08-17T18:51:35.739Z,26.33
2022-08-17T18:54:19.352Z,28.45
2022-08-17T18:56:56.956Z,30.48
2022-08-17T18:59:38.458Z,28.77
2022-08-17T19:02:16.107Z,25.60
2022-08-17T19:05:14.229Z,26.45
2022-08-17T19:07:46.459Z,26.63
2022-08-17T19:10:17.910Z,27.48
2022-08-17T19:12:55.312Z,26.08
2022-08-17T19:15:34.933Z,27.60
2022-08-17T19:18:20.982Z,26.33
2022-08-17T19:20:55.200Z,26.48
2022-08-17T19:23:54.137Z,26.77
2022-08-17T19:26:53.797Z,24.75
2022-08-17T19:29:19.605Z,25.73
2022-08-17T19:31:50.505Z,27.77
2022-08-17T19:34:31.153Z,28.95
2022-08-17T19:37:04.134Z,28.75
2022-08-17T19:39:43.447Z,29.55
2022-08-17T19:42:26.217Z,35.30
2022-08-17T19:44:56.673Z,38.90
2022-08-17T19:47:54.370Z,35.78
2022-08-17T19:50:31.349Z,35.92
2022-08-17T19:53:04.047Z,37.00
2022-08-17T19:55:43.722Z,37.95
2022-08-17T19:58:18.578Z,39.78
2022-08-17T20:00:49.740Z,40.72
2022-08-17T20:03:26.118Z,40.92
2022-08-17T20:06:13.425Z,42.28
2022-08-17T20:08:52.709Z,43.00
2022-08-17T20:11:52.330Z,43.60
2022-08-17T20:14:21.407Z,40.90
2022-08-17T20:16:48.648Z,38.17
2022-08-17T20:19:24.398Z,34.42
2022-08-17T20:21:58.132Z,34.53
2022-08-17T20:24:30.258Z,33.30
2022-08-17T20:26:59.819Z,35.65
2022-08-17T20:29:40.319Z,37.58
2022-08-17T20:32:13.890Z,39.08
2022-08-17T20:34:45.110Z,47.58
2022-08-17T20:37:15.468Z,44.40
2022-08-17T20:39:44.859Z,61.42
2022-08-17T20:42:21.375Z,63.50
2022-08-17T20:44:50.207Z,59.42
2022-08-17T20:47:29.598Z,56.83
2022-08-17T20:50:02.286Z,50.88
2022-08-17T20:52:51.111Z,46.28
2022-08-17T20:55:34.080Z,51.05
2022-08-17T20:58:16.598Z,57.95
2022-08-17T21:00:50.470Z,59.22
2022-08-17T21:03:50.148Z,55.53
2022-08-17T21:06:19.879Z,49.78
2022-08-17T21:08:53.924Z,51.83
2022-08-17T21:12:03.034Z,55.28
2022-08-17T21:14:34.407Z,48.88
2022-08-17T21:17:01.856Z,49.22
2022-08-17T21:19:54.197Z,50.35
2022-08-17T21:22:31.299Z,49.75
2022-08-17T21:25:24.978Z,50.58
2022-08-17T21:28:12.737Z,47.60
2022-08-17T21:30:41.058Z,46.63
2022-08-17T21:33:21.227Z,46.05
2022-08-17T21:36:00.901Z,42.10
2022-08-17T21:39:01.329Z,44.67
2022-08-17T21:41:33.988Z,47.55
2022-08-17T21:44:05.491Z,43.63
2022-08-17T21:46:37.169Z,39.25
2022-08-17T21:49:13.685Z,29.90
2022-08-17T21:51:45.013Z,28.98
2022-08-17T21:54:15.310Z,32.55
2022-08-17T21:56:46.097Z,32.97
2022-08-17T21:59:16.380Z,37.33
2022-08-17T22:01:43.540Z,39.80
2022-08-17T22:04:11.655Z,50.42
2022-08-17T22:06:41.399Z,43.92
2022-08-17T22:09:17.816Z,42.25
2022-08-17T22:12:00.831Z,40.17
2022-08-17T22:14:52.755Z,31.52
2022-08-17T22:17:21.494Z,29.60
2022-08-17T22:19:51.066Z,40.80
2022-08-17T22:22:26.613Z,47.95
2022-08-17T22:24:57.635Z,39.13
2022-08-17T22:27:43.594Z,35.95
2022-08-17T22:30:16.684Z,39.58
2022-08-17T22:32:45.694Z,41.50
2022-08-17T22:35:33.576Z,43.75
2022-08-17T22:38:36.406Z,47.60
2022-08-17T22:41:23.975Z,48.58
2022-08-17T22:43:52.086Z,52.55
2022-08-17T22:46:24.106Z,53.00
2022-08-17T22:48:55.124Z,48.97
2022-08-17T22:51:23.855Z,46.85
2022-08-17T22:54:31.570Z,38.75
2022-08-17T22:57:19.765Z,34.13
2022-08-17T22:59:49.086Z,34.92
2022-08-17T23:02:19.710Z,37.95
2022-08-17T23:04:48.697Z,36.47
2022-08-17T23:07:16.075Z,39.08
2022-08-17T23:09:44.646Z,38.35
2022-08-17T23:12:15.115Z,36.30
2022-08-17T23:14:45.846Z,40.17
2022-08-17T23:17:13.666Z,44.55
2022-08-17T23:19:40.969Z,43.40
2022-08-17T23:22:09.977Z,41.58
2022-08-17T23:24:44.496Z,41.95
2022-08-17T23:27:11.975Z,46.17
2022-08-17T23:29:42.375Z,46.47
2022-08-17T23:32:11.927Z,47.65
2022-08-17T23:34:39.856Z,49.90
2022-08-17T23:37:07.834Z,50.65
2022-08-17T23:39:35.273Z,49.85
2022-08-17T23:42:05.535Z,49.97
2022-08-17T23:44:34.026Z,50.65
2022-08-17T23:47:03.928Z,47.55
2022-08-17T23:49:31.995Z,40.10
2022-08-17T23:52:01.776Z,35.22
2022-08-17T23:54:33.859Z,31.45
2022-08-17T23:57:01.747Z,30.98
2022-08-17T23:59:29.479Z,33.67
